Time;durP1;ratioP1;P1;durP2;ratioP2;P2;SDS_P1;SDS_P2;PMS_P1;PMS_P2;Temp;Humidity;BMP_temperature;BMP_pressure;BME280_temperature;BME280_humidity;BME280_pressure;Samples;Min_cycle;Max_cycle;Signal;HPM_P1;HPM_P2
2023/04/03 00:00:44;;;;;;;8.05;2.90;;;3.80;99.90;;;;;;2087264;28;20125;-72
2023/04/03 00:01:44;;;;;;;7.05;2.70;;;3.80;99.90;;;;;;2088118;28;20416;-71
2023/04/03 00:02:45;;;;;;;9.05;2.90;;;3.80;99.90;;;;;;2083351;28;20043;-71
2023/04/03 00:03:46;;;;;;;7.40;3.00;;;3.80;99.90;;;;;;2088451;28;20024;-71
2023/04/03 00:04:47;;;;;;;7.60;3.20;;;3.80;99.90;;;;;;2075399;28;20028;-71
2023/04/03 00:05:48;;;;;;;5.82;2.50;;;3.80;99.90;;;;;;2085853;28;20061;-72
2023/04/03 00:06:49;;;;;;;5.28;2.53;;;3.80;99.90;;;;;;2085821;28;20036;-71
2023/04/03 00:07:50;;;;;;;7.47;3.03;;;3.80;99.90;;;;;;2085629;28;20021;-70
2023/04/03 00:08:50;;;;;;;7.25;2.92;;;3.70;99.90;;;;;;2076192;28;20041;-70
2023/04/03 00:09:51;;;;;;;7.45;3.25;;;3.80;99.90;;;;;;2074696;28;20045;-71
2023/04/03 00:10:51;;;;;;;6.28;3.03;;;3.70;99.90;;;;;;2078897;28;20036;-70
2023/04/03 00:11:52;;;;;;;6.95;3.22;;;3.80;99.90;;;;;;2084023;28;20546;-70
2023/04/03 00:12:53;;;;;;;6.35;2.40;;;3.70;99.90;;;;;;2088013;28;20028;-71
2023/04/03 00:13:53;;;;;;;5.65;2.45;;;3.70;99.90;;;;;;2076335;28;20041;-71
2023/04/03 00:14:54;;;;;;;6.05;2.35;;;3.70;99.90;;;;;;2077519;28;20030;-71
2023/04/03 00:15:55;;;;;;;7.68;3.50;;;3.60;99.90;;;;;;2087970;28;20025;-71
2023/04/03 00:16:55;;;;;;;6.93;3.00;;;3.60;99.90;;;;;;2087176;28;20032;-71
2023/04/03 00:17:56;;;;;;;7.10;3.10;;;3.70;99.90;;;;;;2079666;28;20347;-70
2023/04/03 00:18:57;;;;;;;5.85;2.70;;;3.60;99.90;;;;;;2075821;28;20491;-70
2023/04/03 00:19:58;;;;;;;7.55;2.83;;;3.60;99.90;;;;;;2078353;28;20044;-70
2023/04/03 00:20:58;;;;;;;7.45;2.83;;;3.60;99.90;;;;;;2084494;28;20052;-71
2023/04/03 00:21:59;;;;;;;7.40;2.60;;;3.60;99.90;;;;;;2085817;28;20040;-71
2023/04/03 00:23:00;;;;;;;5.88;2.80;;;3.60;99.90;;;;;;2094579;28;20032;-71
2023/04/03 00:24:01;;;;;;;5.63;2.60;;;3.60;99.90;;;;;;2077508;28;20096;-70
2023/04/03 00:25:01;;;;;;;6.90;2.60;;;3.50;99.90;;;;;;2080176;28;20042;-70
2023/04/03 00:26:02;;;;;;;7.43;2.70;;;3.50;99.90;;;;;;2086781;28;20029;-71
2023/04/03 00:27:03;;;;;;;6.35;2.80;;;3.50;99.90;;;;;;2080076;28;20032;-70
2023/04/03 00:28:04;;;;;;;5.93;2.60;;;3.50;99.90;;;;;;2081268;28;20522;-71
2023/04/03 00:29:04;;;;;;;5.35;2.53;;;3.50;99.90;;;;;;2086814;28;20028;-71
2023/04/03 00:30:06;;;;;;;7.47;2.80;;;3.50;99.90;;;;;;2093325;28;20043;-71
2023/04/03 00:31:07;;;;;;;4.70;2.53;;;3.50;99.90;;;;;;2075682;28;20021;-71
2023/04/03 00:32:08;;;;;;;6.28;3.13;;;3.50;99.90;;;;;;2077497;28;20104;-72
2023/04/03 00:33:12;;;;;;;8.25;2.80;;;3.40;99.90;;;;;;2095275;28;20028;-71
2023/04/03 00:34:13;;;;;;;4.90;2.63;;;3.40;99.90;;;;;;2094460;28;20020;-72
2023/04/03 00:35:15;;;;;;;10.35;3.47;;;3.40;99.90;;;;;;2077360;28;20118;-71
2023/04/03 00:36:16;;;;;;;7.55;2.80;;;3.40;99.90;;;;;;2083933;28;20029;-70
2023/04/03 00:37:16;;;;;;;6.70;2.78;;;3.50;99.90;;;;;;2087332;28;20466;-70
2023/04/03 00:38:17;;;;;;;6.97;2.85;;;3.50;99.90;;;;;;2087008;28;20063;-70
2023/04/03 00:39:18;;;;;;;4.20;2.50;;;3.40;99.90;;;;;;2086627;28;20115;-70
2023/04/03 00:40:19;;;;;;;6.05;2.78;;;3.40;99.90;;;;;;2078611;28;20029;-70
2023/04/03 00:41:21;;;;;;;8.93;2.75;;;3.40;99.90;;;;;;2087634;28;20071;-70
2023/04/03 00:42:21;;;;;;;4.63;2.20;;;3.40;99.90;;;;;;2085922;28;20029;-71
2023/04/03 00:43:26;;;;;;;8.73;3.13;;;3.40;99.90;;;;;;2085422;28;20048;-71
2023/04/03 00:44:32;;;;;;;8.35;3.15;;;3.30;99.90;;;;;;2083310;28;20555;-71
2023/04/03 00:45:37;;;;;;;7.10;2.63;;;3.30;99.90;;;;;;2085788;28;20106;-71
2023/04/03 00:46:37;;;;;;;4.55;2.50;;;3.30;99.90;;;;;;2080446;28;20057;-70
2023/04/03 00:47:40;;;;;;;8.32;3.17;;;3.30;99.90;;;;;;2086944;28;20443;-71
2023/04/03 00:48:44;;;;;;;6.43;2.63;;;3.30;99.90;;;;;;2078434;28;20047;-70
2023/04/03 00:49:45;;;;;;;9.38;3.50;;;3.30;99.90;;;;;;2078637;28;20066;-70
2023/04/03 00:50:47;;;;;;;9.02;3.85;;;3.30;99.90;;;;;;2074854;28;20494;-71
2023/04/03 00:51:48;;;;;;;11.48;5.05;;;3.30;99.90;;;;;;2086802;28;20036;-71
2023/04/03 00:52:49;;;;;;;17.80;6.65;;;3.30;99.90;;;;;;2086927;28;20032;-70
2023/04/03 00:53:58;;;;;;;18.42;6.75;;;3.40;99.90;;;;;;2083939;28;20517;-70
2023/04/03 00:55:05;;;;;;;13.52;5.40;;;3.30;99.90;;;;;;2088530;28;20034;-70
2023/04/03 00:56:10;;;;;;;8.32;2.90;;;3.30;99.90;;;;;;2085362;28;20099;-70
2023/04/03 00:57:11;;;;;;;8.95;2.88;;;3.30;99.90;;;;;;2085559;28;20108;-70
2023/04/03 00:58:12;;;;;;;7.30;2.80;;;3.30;99.90;;;;;;2085693;28;20134;-70
2023/04/03 00:59:16;;;;;;;7.13;2.72;;;3.30;99.90;;;;;;2085640;28;20354;-71
2023/04/03 01:00:19;;;;;;;7.63;2.85;;;3.30;99.90;;;;;;2083169;28;20487;-70
2023/04/03 01:01:24;;;;;;;5.35;2.40;;;3.30;99.90;;;;;;2088253;28;20053;-70
2023/04/03 01:02:25;;;;;;;5.97;2.50;;;3.30;99.90;;;;;;2088271;28;20591;-71
2023/04/03 01:03:26;;;;;;;4.55;2.30;;;3.30;99.90;;;;;;2096291;28;20028;-71
2023/04/03 01:04:37;;;;;;;6.03;2.72;;;3.30;99.90;;;;;;2086478;28;20592;-71
2023/04/03 01:05:38;;;;;;;7.72;3.35;;;3.30;99.90;;;;;;2078075;28;20478;-71
2023/04/03 01:06:39;;;;;;;7.13;2.78;;;3.20;99.90;;;;;;2079402;28;20448;-81
2023/04/03 01:07:42;;;;;;;5.32;2.63;;;3.30;99.90;;;;;;2075845;28;20021;-80
2023/04/03 01:08:43;;;;;;;4.57;2.65;;;3.20;99.90;;;;;;2069913;28;20029;-80
2023/04/03 01:09:46;;;;;;;6.55;2.95;;;3.20;99.90;;;;;;2076110;28;20047;-81
2023/04/03 01:10:47;;;;;;;5.93;2.63;;;3.20;99.90;;;;;;2084909;28;20144;-78
2023/04/03 01:11:48;;;;;;;6.50;2.78;;;3.20;99.90;;;;;;2085507;28;20059;-78
2023/04/03 01:12:50;;;;;;;5.85;2.67;;;3.20;99.90;;;;;;2086962;28;20029;-78
2023/04/03 01:13:51;;;;;;;7.57;2.70;;;3.20;99.90;;;;;;2075796;28;20040;-80
2023/04/03 01:14:57;;;;;;;6.60;2.63;;;3.20;99.90;;;;;;2078963;28;20033;-79
2023/04/03 01:16:03;;;;;;;5.30;2.65;;;3.10;99.90;;;;;;2088879;28;20033;-80
2023/04/03 01:17:21;;;;;;;5.32;2.53;;;3.10;99.90;;;;;;2095663;28;20064;-80
2023/04/03 01:18:24;;;;;;;8.48;2.75;;;3.10;99.90;;;;;;2095858;28;20093;-79
2023/04/03 01:19:26;;;;;;;8.07;2.63;;;3.10;99.90;;;;;;2083177;28;20021;-80
2023/04/03 01:20:45;;;;;;;4.43;2.58;;;3.10;99.90;;;;;;2086899;28;20078;-81
2023/04/03 01:22:16;;;;;;;6.65;2.72;;;3.10;99.90;;;;;;2079260;28;20202;-81
2023/04/03 01:23:26;;;;;;;4.85;2.55;;;3.10;99.90;;;;;;2066232;28;20568;-81
2023/04/03 01:24:38;;;;;;;5.65;2.95;;;3.10;99.90;;;;;;2078868;28;20101;-81
2023/04/03 01:25:50;;;;;;;8.02;2.80;;;3.10;99.90;;;;;;2079325;28;20034;-80
2023/04/03 01:26:50;;;;;;;7.10;2.83;;;3.10;99.90;;;;;;2087578;28;20902;-81
2023/04/03 01:27:51;;;;;;;5.78;2.70;;;3.00;99.90;;;;;;2085397;28;20041;-81
2023/04/03 01:28:55;;;;;;;7.10;2.78;;;3.00;99.90;;;;;;2085578;28;20024;-80
2023/04/03 01:29:55;;;;;;;6.30;2.60;;;3.00;99.90;;;;;;2097116;28;20518;-81
2023/04/03 01:31:10;;;;;;;6.40;2.50;;;3.00;99.90;;;;;;2086864;28;20021;-80
2023/04/03 01:32:11;;;;;;;5.38;2.67;;;3.00;99.90;;;;;;2079461;28;20606;-80
2023/04/03 01:33:11;;;;;;;8.05;2.80;;;3.00;99.90;;;;;;2082731;28;20029;-80
2023/04/03 01:34:12;;;;;;;5.50;2.75;;;3.00;99.90;;;;;;2086495;28;20029;-80
2023/04/03 01:35:13;;;;;;;5.25;2.63;;;3.00;99.90;;;;;;2070030;28;20033;-79
2023/04/03 01:36:18;;;;;;;4.57;2.70;;;3.00;99.90;;;;;;2069602;28;20073;-80
2023/04/03 01:37:19;;;;;;;7.47;2.92;;;3.00;99.90;;;;;;2086047;28;20054;-80
2023/04/03 01:38:20;;;;;;;7.53;2.70;;;2.90;99.90;;;;;;2087713;28;20826;-80
2023/04/03 01:39:21;;;;;;;6.22;2.58;;;2.90;99.90;;;;;;2085271;28;20068;-80
2023/04/03 01:40:22;;;;;;;7.05;2.55;;;2.90;99.90;;;;;;2075849;28;20147;-80
2023/04/03 01:41:23;;;;;;;8.15;2.80;;;2.90;99.90;;;;;;2071601;28;20021;-78
2023/04/03 01:42:26;;;;;;;5.93;2.75;;;2.90;99.90;;;;;;2077666;28;20111;-77
2023/04/03 01:43:26;;;;;;;6.05;2.60;;;2.90;99.90;;;;;;2071319;28;20022;-79
2023/04/03 01:44:27;;;;;;;7.10;2.90;;;2.90;99.90;;;;;;2078313;28;20029;-79
2023/04/03 01:45:27;;;;;;;5.28;2.80;;;2.90;99.90;;;;;;2078638;28;20132;-79
2023/04/03 01:46:28;;;;;;;4.32;2.55;;;2.90;99.90;;;;;;2079380;28;20025;-79
2023/04/03 01:47:29;;;;;;;5.18;2.78;;;2.90;99.90;;;;;;2076994;28;20488;-78
2023/04/03 01:48:30;;;;;;;5.72;2.67;;;2.90;99.90;;;;;;2077192;28;20049;-79
2023/04/03 01:49:31;;;;;;;4.70;2.78;;;2.80;99.90;;;;;;2085179;28;20163;-80
2023/04/03 01:50:31;;;;;;;6.57;3.20;;;2.80;99.90;;;;;;2082363;28;20056;-79
2023/04/03 01:51:33;;;;;;;5.65;2.90;;;2.80;99.90;;;;;;2079305;28;20029;-80
2023/04/03 01:52:33;;;;;;;8.40;2.92;;;2.80;99.90;;;;;;2067881;28;20030;-80
2023/04/03 01:53:34;;;;;;;7.32;2.80;;;2.80;99.90;;;;;;2078140;28;20041;-79
2023/04/03 01:54:34;;;;;;;5.82;2.45;;;2.70;99.90;;;;;;2090645;28;20073;-80
2023/04/03 01:55:35;;;;;;;6.40;2.67;;;2.70;99.90;;;;;;2085670;28;20207;-80
2023/04/03 01:56:36;;;;;;;5.25;2.60;;;2.70;99.90;;;;;;2085942;28;20033;-80
2023/04/03 01:57:37;;;;;;;6.35;2.80;;;2.70;99.90;;;;;;2079972;28;20033;-77
2023/04/03 01:58:38;;;;;;;8.35;3.17;;;2.70;99.90;;;;;;2064821;28;20033;-79
2023/04/03 01:59:38;;;;;;;7.68;3.03;;;2.70;99.90;;;;;;2076499;28;20048;-78
2023/04/03 02:00:39;;;;;;;6.93;2.67;;;2.70;99.90;;;;;;2086887;28;20025;-80
2023/04/03 02:01:40;;;;;;;6.32;3.08;;;2.70;99.90;;;;;;2080148;28;20040;-79
2023/04/03 02:02:40;;;;;;;7.85;2.80;;;2.70;99.90;;;;;;2084873;28;20281;-79
2023/04/03 02:03:41;;;;;;;6.68;2.80;;;2.70;99.90;;;;;;2074000;28;20029;-80
2023/04/03 02:04:42;;;;;;;6.28;2.80;;;2.70;99.90;;;;;;2077137;28;20518;-79
2023/04/03 02:05:43;;;;;;;7.57;2.70;;;2.70;99.90;;;;;;2085370;28;20063;-80
2023/04/03 02:06:44;;;;;;;5.57;2.50;;;2.60;99.90;;;;;;2079281;28;20114;-80
2023/04/03 02:07:45;;;;;;;7.10;2.75;;;2.60;99.90;;;;;;2077517;28;20033;-80
2023/04/03 02:08:46;;;;;;;6.13;2.55;;;2.60;99.90;;;;;;2077577;28;20615;-80
2023/04/03 02:09:46;;;;;;;6.13;2.67;;;2.60;99.90;;;;;;2079179;28;20040;-82
2023/04/03 02:10:48;;;;;;;7.40;3.00;;;2.60;99.90;;;;;;2086096;28;20032;-80
2023/04/03 02:11:49;;;;;;;5.68;2.78;;;2.60;99.90;;;;;;2079993;28;20056;-79
2023/04/03 02:12:50;;;;;;;7.40;3.05;;;2.60;99.90;;;;;;2081656;28;20025;-80
2023/04/03 02:13:51;;;;;;;7.88;2.88;;;2.50;99.90;;;;;;2076949;28;20094;-81
2023/04/03 02:14:51;;;;;;;6.45;2.80;;;2.50;99.90;;;;;;2076939;28;20029;-80
2023/04/03 02:15:52;;;;;;;7.07;2.80;;;2.50;99.90;;;;;;2084511;28;20029;-79
2023/04/03 02:16:53;;;;;;;6.78;2.90;;;2.40;99.90;;;;;;2086920;28;20036;-79
2023/04/03 02:17:56;;;;;;;7.13;2.55;;;2.40;99.90;;;;;;2079668;28;20030;-80
2023/04/03 02:18:57;;;;;;;5.55;2.63;;;2.40;99.90;;;;;;2088492;28;20024;-80
2023/04/03 02:19:58;;;;;;;7.05;2.85;;;2.40;99.90;;;;;;2080653;28;20052;-80
2023/04/03 02:20:58;;;;;;;4.65;2.55;;;2.40;99.90;;;;;;2085362;28;20052;-79
2023/04/03 02:22:02;;;;;;;7.80;2.80;;;2.40;99.90;;;;;;2078703;28;20025;-80
2023/04/03 02:23:03;;;;;;;7.88;2.67;;;2.30;99.90;;;;;;2079069;28;20120;-79
2023/04/03 02:24:03;;;;;;;6.93;2.90;;;2.30;99.90;;;;;;2086741;28;20029;-79
2023/04/03 02:25:04;;;;;;;5.88;2.90;;;2.30;99.90;;;;;;2089314;28;20037;-80
2023/04/03 02:26:07;;;;;;;6.85;3.15;;;2.40;99.90;;;;;;2087971;28;20025;-80
2023/04/03 02:27:08;;;;;;;8.05;3.20;;;2.40;99.90;;;;;;2081383;28;20048;-80
2023/04/03 02:28:15;;;;;;;6.95;2.83;;;2.40;99.90;;;;;;2082626;28;20116;-79
2023/04/03 02:29:15;;;;;;;8.15;2.88;;;2.40;99.90;;;;;;2088990;28;20024;-80
2023/04/03 02:30:19;;;;;;;6.13;2.70;;;2.30;99.90;;;;;;2098153;28;20410;-81
2023/04/03 02:31:20;;;;;;;8.40;2.88;;;2.40;99.90;;;;;;2086889;28;20120;-80
2023/04/03 02:32:23;;;;;;;7.90;3.00;;;2.40;99.90;;;;;;2087592;28;20032;-81
2023/04/03 02:33:24;;;;;;;8.27;3.00;;;2.30;99.90;;;;;;2087225;28;20062;-80
2023/04/03 02:34:25;;;;;;;6.68;2.70;;;2.30;99.90;;;;;;2078376;28;20124;-80
2023/04/03 02:35:30;;;;;;;5.88;2.80;;;2.30;99.90;;;;;;2086859;28;20842;-80
2023/04/03 02:36:32;;;;;;;6.20;2.67;;;2.30;99.90;;;;;;2080822;28;20121;-81
2023/04/03 02:37:35;;;;;;;6.05;2.65;;;2.30;99.90;;;;;;2072769;28;20073;-84
2023/04/03 02:38:36;;;;;;;4.93;2.72;;;2.30;99.90;;;;;;2079990;28;20037;-79
2023/04/03 02:39:37;;;;;;;5.88;2.63;;;2.30;99.90;;;;;;2086064;28;20031;-80
2023/04/03 02:40:38;;;;;;;7.03;2.90;;;2.30;99.90;;;;;;2079423;28;20033;-79
2023/04/03 02:41:38;;;;;;;7.07;3.05;;;2.20;99.90;;;;;;2071102;28;20113;-78
2023/04/03 02:42:45;;;;;;;7.00;2.97;;;2.20;99.90;;;;;;2071403;28;20030;-81
2023/04/03 02:43:45;;;;;;;7.68;2.67;;;2.10;99.90;;;;;;2080730;28;20112;-80
2023/04/03 02:44:46;;;;;;;6.03;2.47;;;2.00;99.90;;;;;;2071005;28;20604;-80
2023/04/03 02:45:47;;;;;;;7.50;2.75;;;2.00;99.90;;;;;;2078391;28;20397;-79
2023/04/03 02:46:47;;;;;;;5.32;2.53;;;2.00;99.90;;;;;;2082644;28;20029;-79
2023/04/03 02:47:48;;;;;;;4.57;2.50;;;1.90;99.90;;;;;;2089258;28;20052;-78
2023/04/03 02:48:48;;;;;;;7.97;2.78;;;2.00;99.90;;;;;;2083050;28;20049;-82
2023/04/03 02:49:49;;;;;;;8.85;2.70;;;2.00;99.90;;;;;;2075040;28;20538;-78
2023/04/03 02:50:50;;;;;;;6.47;2.70;;;2.00;99.90;;;;;;2070452;28;20076;-79
2023/04/03 02:51:51;;;;;;;8.18;2.88;;;1.90;99.90;;;;;;2071841;28;20669;-79
2023/04/03 02:52:51;;;;;;;7.05;2.70;;;1.90;99.90;;;;;;2083046;28;20051;-79
2023/04/03 02:53:52;;;;;;;7.13;2.83;;;1.90;99.90;;;;;;2078414;28;20260;-79
2023/04/03 02:54:56;;;;;;;5.82;2.58;;;1.90;99.90;;;;;;2086604;28;20063;-80
2023/04/03 02:55:57;;;;;;;6.68;2.78;;;1.80;99.90;;;;;;2089276;28;20162;-80
2023/04/03 02:56:57;;;;;;;6.72;2.60;;;1.80;99.90;;;;;;2088325;28;20091;-79
2023/04/03 02:57:58;;;;;;;6.80;2.60;;;1.70;99.90;;;;;;2084605;28;20033;-80
2023/04/03 02:58:59;;;;;;;7.20;2.60;;;1.70;99.90;;;;;;2087723;28;20531;-79
2023/04/03 03:00:00;;;;;;;6.05;2.72;;;1.70;99.90;;;;;;2087542;28;20107;-80
2023/04/03 03:01:00;;;;;;;7.07;2.78;;;1.70;99.90;;;;;;2079155;28;20025;-78
2023/04/03 03:02:01;;;;;;;8.70;3.20;;;1.70;99.90;;;;;;2068375;28;20048;-79
2023/04/03 03:03:02;;;;;;;7.65;2.80;;;1.70;99.90;;;;;;2077224;28;20074;-78
2023/04/03 03:04:03;;;;;;;9.20;3.13;;;1.70;99.90;;;;;;2078305;28;20041;-78
2023/04/03 03:05:04;;;;;;;8.27;2.67;;;1.60;99.90;;;;;;2089070;28;20112;-79
2023/04/03 03:06:07;;;;;;;6.60;2.53;;;1.60;99.90;;;;;;2096459;28;20028;-79
2023/04/03 03:07:08;;;;;;;6.25;2.70;;;1.50;99.90;;;;;;2093021;28;20028;-80
2023/04/03 03:08:08;;;;;;;6.53;2.75;;;1.50;99.90;;;;;;2087587;28;20454;-79
2023/04/03 03:09:13;;;;;;;4.82;2.47;;;1.50;99.90;;;;;;2083917;28;20123;-79
2023/04/03 03:10:14;;;;;;;7.13;2.67;;;1.50;99.90;;;;;;2093331;28;20479;-78
2023/04/03 03:11:14;;;;;;;8.57;2.72;;;1.40;99.90;;;;;;2086962;28;20082;-78
2023/04/03 03:12:15;;;;;;;7.55;3.05;;;1.40;99.90;;;;;;2089011;28;20048;-78
2023/04/03 03:13:16;;;;;;;7.07;2.85;;;1.40;99.90;;;;;;2086607;28;20055;-79
2023/04/03 03:14:16;;;;;;;6.13;2.65;;;1.40;99.90;;;;;;2078051;28;20029;-79
2023/04/03 03:15:19;;;;;;;7.60;2.85;;;1.40;99.90;;;;;;2078070;28;20021;-78
2023/04/03 03:16:20;;;;;;;7.88;2.83;;;1.40;99.90;;;;;;2080965;28;20025;-78
2023/04/03 03:17:20;;;;;;;6.53;3.03;;;1.40;99.90;;;;;;2087741;28;20037;-78
2023/04/03 03:18:21;;;;;;;7.57;2.70;;;1.40;99.90;;;;;;2098023;28;20088;-80
2023/04/03 03:19:23;;;;;;;9.13;3.10;;;1.30;99.90;;;;;;2087014;28;20024;-79
2023/04/03 03:20:24;;;;;;;6.93;2.80;;;1.30;99.90;;;;;;2079196;28;20111;-79
2023/04/03 03:21:25;;;;;;;6.57;2.70;;;1.40;99.90;;;;;;2080645;28;20033;-79
2023/04/03 03:22:26;;;;;;;6.32;2.80;;;1.30;99.90;;;;;;2083772;28;20409;-79
2023/04/03 03:23:28;;;;;;;8.32;2.67;;;1.30;99.90;;;;;;2086216;28;20024;-78
2023/04/03 03:24:29;;;;;;;7.18;2.80;;;1.30;99.90;;;;;;2078200;28;20037;-79
2023/04/03 03:25:30;;;;;;;7.55;2.80;;;1.30;99.90;;;;;;2086357;28;20113;-80
2023/04/03 03:26:31;;;;;;;10.70;3.20;;;1.30;99.90;;;;;;2097882;28;20040;-81
2023/04/03 03:27:31;;;;;;;8.40;2.97;;;1.30;99.90;;;;;;2079671;28;20029;-80
2023/04/03 03:28:33;;;;;;;5.93;2.88;;;1.30;99.90;;;;;;2071265;28;20146;-80
2023/04/03 03:29:33;;;;;;;6.20;2.72;;;1.30;99.90;;;;;;2087730;28;20365;-81
2023/04/03 03:30:35;;;;;;;7.63;3.10;;;1.30;99.90;;;;;;2089444;28;20064;-80
2023/04/03 03:31:35;;;;;;;7.70;2.70;;;1.30;99.90;;;;;;2084526;28;20040;-79
2023/04/03 03:32:36;;;;;;;6.82;2.88;;;1.30;99.90;;;;;;2086308;28;20202;-79
2023/04/03 03:33:36;;;;;;;6.78;2.83;;;1.30;99.90;;;;;;2077437;28;20051;-80
2023/04/03 03:34:37;;;;;;;7.20;2.92;;;1.30;99.90;;;;;;2086323;28;20406;-79
2023/04/03 03:35:38;;;;;;;4.93;2.58;;;1.20;99.90;;;;;;2096341;28;20518;-78
2023/04/03 03:36:39;;;;;;;7.05;2.85;;;1.10;99.90;;;;;;2096953;28;20561;-79
2023/04/03 03:37:39;;;;;;;8.85;2.90;;;1.10;99.90;;;;;;2087347;28;20111;-80
2023/04/03 03:38:40;;;;;;;9.68;2.70;;;1.10;99.90;;;;;;2078898;28;20032;-78
2023/04/03 03:39:40;;;;;;;7.35;2.88;;;1.10;99.90;;;;;;2088771;28;20134;-80
2023/04/03 03:40:41;;;;;;;7.75;2.83;;;1.00;99.90;;;;;;2086429;28;20028;-80
2023/04/03 03:41:42;;;;;;;5.35;2.97;;;1.00;99.90;;;;;;2086533;28;20033;-78
2023/04/03 03:42:43;;;;;;;7.82;2.80;;;1.10;99.90;;;;;;2077821;28;20035;-79
2023/04/03 03:43:43;;;;;;;6.35;2.63;;;1.10;99.90;;;;;;2078039;28;20469;-80
2023/04/03 03:44:45;;;;;;;7.85;3.03;;;1.00;99.90;;;;;;2085732;28;20060;-79
2023/04/03 03:45:51;;;;;;;6.95;2.60;;;1.00;99.90;;;;;;2086616;28;20024;-79
2023/04/03 03:46:51;;;;;;;6.88;2.75;;;1.00;99.90;;;;;;2080895;28;20064;-79
2023/04/03 03:47:52;;;;;;;9.02;3.05;;;1.00;99.90;;;;;;2076592;28;20029;-79
2023/04/03 03:48:53;;;;;;;6.82;2.78;;;1.00;99.90;;;;;;2087246;28;20032;-79
2023/04/03 03:49:53;;;;;;;7.25;2.95;;;1.00;99.90;;;;;;2088798;28;20142;-80
2023/04/03 03:50:54;;;;;;;7.38;2.90;;;0.90;99.90;;;;;;2070126;28;20268;-79
2023/04/03 03:51:59;;;;;;;6.95;2.85;;;0.90;99.90;;;;;;2077757;28;20407;-80
2023/04/03 03:52:59;;;;;;;7.85;2.97;;;0.90;99.90;;;;;;2076690;28;20037;-78
2023/04/03 03:54:00;;;;;;;9.02;2.83;;;0.90;99.90;;;;;;2069694;28;20033;-79
2023/04/03 03:55:01;;;;;;;6.68;2.70;;;0.90;99.90;;;;;;2078970;28;20087;-80
2023/04/03 03:56:02;;;;;;;7.15;2.95;;;0.90;99.90;;;;;;2073754;28;20025;-78
2023/04/03 03:57:04;;;;;;;8.85;3.10;;;0.80;99.90;;;;;;2075386;28;20029;-79
2023/04/03 03:58:05;;;;;;;6.93;2.75;;;0.80;99.90;;;;;;2084546;28;20119;-78
2023/04/03 03:59:07;;;;;;;8.63;3.17;;;0.80;99.90;;;;;;2067021;28;20392;-79
2023/04/03 04:00:09;;;;;;;9.27;3.63;;;0.80;99.90;;;;;;2073990;28;20399;-77
2023/04/03 04:01:16;;;;;;;9.30;3.33;;;0.70;99.90;;;;;;2084804;28;20112;-78
2023/04/03 04:02:21;;;;;;;7.63;2.85;;;0.70;99.90;;;;;;2088157;28;20392;-80
2023/04/03 04:03:21;;;;;;;8.55;3.20;;;0.70;99.90;;;;;;2081601;28;20056;-79
2023/04/03 04:04:23;;;;;;;5.75;2.80;;;0.70;99.90;;;;;;2084672;28;20009;-80
2023/04/03 04:05:24;;;;;;;10.00;3.05;;;0.70;99.90;;;;;;2074118;28;20331;-79
2023/04/03 04:06:27;;;;;;;59.97;5.72;;;0.70;99.90;;;;;;2074640;28;20144;-78
2023/04/03 04:07:31;;;;;;;8.18;3.30;;;0.70;99.90;;;;;;2068464;28;20128;-77
2023/04/03 04:08:32;;;;;;;18.95;3.60;;;0.70;99.90;;;;;;2059881;28;20543;-79
2023/04/03 04:09:32;;;;;;;21.25;4.15;;;0.70;99.90;;;;;;2074093;28;20044;-78
2023/04/03 04:10:34;;;;;;;8.65;3.20;;;0.70;99.90;;;;;;2074944;28;20123;-78
2023/04/03 04:11:35;;;;;;;8.18;3.30;;;0.70;99.90;;;;;;2082584;28;20036;-77
2023/04/03 04:12:37;;;;;;;10.73;3.40;;;0.70;99.90;;;;;;2087535;28;20032;-77
2023/04/03 04:13:38;;;;;;;18.20;3.80;;;0.70;99.90;;;;;;2087094;28;20028;-77
2023/04/03 04:14:39;;;;;;;8.15;3.42;;;0.70;99.90;;;;;;2088670;28;20033;-78
2023/04/03 04:15:43;;;;;;;7.13;2.92;;;0.70;99.90;;;;;;2067791;28;20438;-79
2023/04/03 04:16:44;;;;;;;6.82;3.13;;;0.70;99.90;;;;;;2078310;28;20063;-79
2023/04/03 04:17:49;;;;;;;10.63;3.40;;;0.70;99.90;;;;;;2078495;28;20036;-79
2023/04/03 04:18:50;;;;;;;8.57;2.95;;;0.70;99.90;;;;;;2069709;28;20523;-80
2023/04/03 04:19:51;;;;;;;9.05;3.17;;;0.70;99.90;;;;;;2068323;28;20026;-79
2023/04/03 04:20:51;;;;;;;9.05;2.97;;;0.60;99.90;;;;;;2074614;28;20467;-80
2023/04/03 04:21:52;;;;;;;9.63;3.50;;;0.60;99.90;;;;;;2088059;28;20370;-80
2023/04/03 04:22:53;;;;;;;7.22;2.90;;;0.60;99.90;;;;;;2084643;28;20407;-79
2023/04/03 04:23:55;;;;;;;8.90;3.17;;;0.60;99.90;;;;;;2078619;28;20025;-80
2023/04/03 04:24:56;;;;;;;11.38;3.58;;;0.60;99.90;;;;;;2082387;28;20016;-78
2023/04/03 04:25:57;;;;;;;8.75;3.10;;;0.60;99.90;;;;;;2087983;28;20415;-81
2023/04/03 04:26:58;;;;;;;8.70;3.10;;;0.60;99.90;;;;;;2086160;28;20024;-78
2023/04/03 04:27:59;;;;;;;9.40;3.10;;;0.60;99.90;;;;;;2085355;28;20092;-79
2023/04/03 04:29:00;;;;;;;8.50;3.08;;;0.60;99.90;;;;;;2074532;28;20033;-73
2023/04/03 04:30:02;;;;;;;7.65;3.05;;;0.50;99.90;;;;;;2073264;28;20085;-75
2023/04/03 04:31:03;;;;;;;7.25;3.17;;;0.50;99.90;;;;;;2077750;28;20153;-74
2023/04/03 04:32:07;;;;;;;9.38;3.47;;;0.40;99.90;;;;;;2066337;28;20460;-77
2023/04/03 04:33:08;;;;;;;10.77;3.50;;;0.40;99.90;;;;;;2067971;28;20034;-71
2023/04/03 04:34:09;;;;;;;7.90;3.15;;;0.40;99.90;;;;;;2075651;28;20072;-75
2023/04/03 04:35:11;;;;;;;8.95;3.08;;;0.40;99.90;;;;;;2089966;28;20476;-75
2023/04/03 04:36:15;;;;;;;7.55;2.95;;;0.40;99.90;;;;;;2086322;28;20062;-73
2023/04/03 04:37:18;;;;;;;6.90;3.00;;;0.40;99.90;;;;;;2079486;28;20033;-74
2023/04/03 04:38:21;;;;;;;10.77;3.28;;;0.40;99.90;;;;;;2083473;28;20024;-72
2023/04/03 04:39:22;;;;;;;9.05;3.17;;;0.40;99.90;;;;;;2074011;28;20026;-73
2023/04/03 04:40:23;;;;;;;8.07;3.17;;;0.40;99.90;;;;;;2073321;28;20124;-73
2023/04/03 04:41:24;;;;;;;7.03;3.00;;;0.30;99.90;;;;;;2085783;28;20025;-72
2023/04/03 04:42:26;;;;;;;7.65;2.90;;;0.40;99.90;;;;;;2080041;28;20516;-74
2023/04/03 04:43:26;;;;;;;10.05;3.10;;;0.30;99.90;;;;;;2086912;28;20117;-73
2023/04/03 04:44:29;;;;;;;8.88;3.30;;;0.30;99.90;;;;;;2077961;28;20403;-73
2023/04/03 04:45:29;;;;;;;7.95;3.30;;;0.40;99.90;;;;;;2086009;28;20121;-74
2023/04/03 04:46:31;;;;;;;8.68;3.20;;;0.40;99.90;;;;;;2078439;28;20185;-73
2023/04/03 04:47:33;;;;;;;10.15;3.30;;;0.30;99.90;;;;;;2078284;28;20059;-71
2023/04/03 04:48:34;;;;;;;7.82;3.08;;;0.30;99.90;;;;;;2087464;28;20028;-74
2023/04/03 04:49:36;;;;;;;6.82;3.03;;;0.20;99.90;;;;;;2082995;28;20529;-74
2023/04/03 04:50:37;;;;;;;9.63;3.17;;;0.20;99.90;;;;;;2069362;28;20721;-74
2023/04/03 04:51:38;;;;;;;8.85;3.63;;;0.20;99.90;;;;;;2086052;28;20033;-75
2023/04/03 04:52:39;;;;;;;9.23;3.47;;;0.30;99.90;;;;;;2077565;28;20029;-75
2023/04/03 04:53:42;;;;;;;9.35;3.13;;;0.30;99.90;;;;;;2084510;28;20410;-72
2023/04/03 04:54:45;;;;;;;8.73;3.55;;;0.30;99.90;;;;;;2084185;28;20064;-72
2023/04/03 04:55:45;;;;;;;8.18;3.40;;;0.30;99.90;;;;;;2077656;28;20059;-73
2023/04/03 04:56:46;;;;;;;8.52;3.35;;;0.30;99.90;;;;;;2078691;28;20031;-73
2023/04/03 04:57:47;;;;;;;7.70;3.30;;;0.30;99.90;;;;;;2080156;28;20465;-72
2023/04/03 04:58:48;;;;;;;9.52;3.50;;;0.30;99.90;;;;;;2085296;28;20499;-73
2023/04/03 04:59:50;;;;;;;9.07;3.05;;;0.20;99.90;;;;;;2085394;28;20172;-79
2023/04/03 05:00:58;;;;;;;11.60;3.55;;;0.20;99.90;;;;;;2068870;28;20480;-80
2023/04/03 05:01:58;;;;;;;8.95;3.40;;;0.20;99.90;;;;;;2071132;28;20018;-79
2023/04/03 05:03:00;;;;;;;8.43;3.40;;;0.20;99.90;;;;;;2079942;28;20026;-79
2023/04/03 05:04:01;;;;;;;9.90;3.53;;;0.20;99.90;;;;;;2086344;28;20032;-79
2023/04/03 05:05:03;;;;;;;7.10;3.35;;;0.20;99.90;;;;;;2078627;28;20504;-71
2023/04/03 05:06:04;;;;;;;8.52;3.53;;;0.20;99.90;;;;;;2079454;28;20607;-73
2023/04/03 05:07:06;;;;;;;9.52;3.40;;;0.20;99.90;;;;;;2078465;28;20029;-73
2023/04/03 05:08:10;;;;;;;10.43;3.65;;;0.20;99.90;;;;;;2071564;28;20037;-74
2023/04/03 05:09:12;;;;;;;9.00;3.47;;;0.20;99.90;;;;;;2070729;28;20112;-70
2023/04/03 05:10:17;;;;;;;8.13;3.13;;;0.20;99.90;;;;;;2079292;28;20382;-71
2023/04/03 05:11:20;;;;;;;9.00;3.38;;;0.20;99.90;;;;;;2077266;28;20025;-72
2023/04/03 05:12:23;;;;;;;7.28;3.40;;;0.20;99.90;;;;;;2085843;28;20025;-71
2023/04/03 05:13:29;;;;;;;8.95;3.70;;;0.30;99.90;;;;;;2086948;28;20178;-72
2023/04/03 05:14:31;;;;;;;10.98;3.95;;;0.30;99.90;;;;;;2085921;28;20052;-72
2023/04/03 05:15:36;;;;;;;7.85;3.38;;;0.30;99.90;;;;;;2070442;28;20049;-72
2023/04/03 05:16:38;;;;;;;9.63;3.55;;;0.30;99.90;;;;;;2077607;28;20034;-68
2023/04/03 05:17:38;;;;;;;10.23;4.00;;;0.30;99.90;;;;;;2084086;28;20033;-68
2023/04/03 05:18:40;;;;;;;12.35;4.20;;;0.30;99.90;;;;;;2071129;28;20033;-68
2023/04/03 05:19:44;;;;;;;10.32;4.10;;;0.30;99.90;;;;;;2086680;28;20044;-68
2023/04/03 05:20:48;;;;;;;10.75;3.72;;;0.30;99.90;;;;;;2078251;28;20029;-68
2023/04/03 05:21:49;;;;;;;9.68;3.63;;;0.30;99.90;;;;;;2078702;28;20593;-68
2023/04/03 05:22:51;;;;;;;9.68;3.80;;;0.30;99.90;;;;;;2079901;28;20048;-69
2023/04/03 05:23:52;;;;;;;9.82;3.90;;;0.30;99.90;;;;;;2084911;28;20150;-67
2023/04/03 05:24:53;;;;;;;8.35;3.90;;;0.30;99.90;;;;;;2076933;28;20029;-73
2023/04/03 05:25:57;;;;;;;11.35;3.80;;;0.30;99.90;;;;;;2065750;28;20027;-73